Share

Albany, GA

Grand Island Club (KGAALBAN4) Elev 259 ft | 31.62 °N, 84.21 °W | Change Station

Current weather conditions updated 43 seconds ago

Rain
Rain
54.9 °F
Feels Like 54.9 °F
N
1.0
Wind Variable Wind from NW
Gusts 7.0 mph
Sunrise 7:03 AM
Sunset 8:08 PM
Moon Waning Gibbous

Today is forecast to be Much Warmer than yesterday. Chance of showers.

Pressure 30.02 in
Visibility 2.0 miles
Clouds
Dew Point 54 °F
Humidity 97%
Rainfall 0.06 in
Snow Depth Not available.
UV Not available.
Pollen 5.50 out of 12
Air Quality Not available.
Flu Activity Sporadic
METAR KACJ 191410Z AUTO 03011G18KT 2SM RA 11/11 A3002 RMK AO2

More Conditions Fewer Conditions

Pressure 30.02 in
Visibility 2.0 miles
Clouds
Dew Point 54 °F
Humidity 97%
Rainfall 0.06 in
Snow Depth Not available.
UV Not available.
Pollen 5.50 out of 12
Air Quality Not available.
Flu Activity Sporadic
METAR KACJ 191410Z AUTO 03011G18KT 2SM RA 11/11 A3002 RMK AO2

More Conditions Fewer Conditions

10-Day Weather Forecast

Almanac

Astronomy

Apr. 19, 2014 Rise Set
Actual Time 7:03 AM EDT 8:08 PM EDT
Civil Twilight 6:38 AM EDT 8:33 PM EDT
Nautical Twilight 6:08 AM EDT 9:03 PM EDT
Astronomical Twilight 5:38 AM EDT 9:34 PM EDT
Moon No Moon Rise 10:29 AM EDT
Length of Visible Light 13h 54m
Length of Day
13h 04m
Tomorrow will be 1m 47s longer.
Waning Gibbous, 79% of the Moon is Illuminated
Today
Waning Gibbous
Apr 22
Last Quarter
Apr 29
New
May 6
First Quarter
May 14
Full

Today's Extremes

State Highs State Lows

Community

  • A Glorious Morning
    A Glorious Morning
  • Tender Rays Of Hope
    Tender Rays Of Hope
  • Bleeding Hearts
    Bleeding Hearts
  • Sunset Silhouettes
    Sunset Silhouettes
  • FL sunset Perico Isle
    FL sunset Perico Isle

WunderPhotos

Upload Photos

1,702,755 photos uploaded!

Nearby

Snow Depth

Station Depth Elevation
No new snow has been reported.

Coastal Water Temperatures

Place Temperature
No Stations Reporting

Earthquake Activity

City Distance Mag. Time & Date
No recent earthquake activity has been reported nearby.
Minimum magnitude displayed is 2.5.

Nearby Weather Stations

Station Location Temp. Dew Point Humidity Wind Precip. Elev Updated Type
Grand Island Club, Albany, GA 54.9 °F 54 °F 97% NW  at  1.0 mph 0.00 in / hr 259 ft 10:42 AM EDT Normal
Worth County High School, Sylvester, GA 53.7 °F 53 °F 96% NNE  at  9.0 mph 0.00 in / hr 436 ft 10:40 AM EDT Normal

Show More Stations Show Fewer Stations

What do you think?

We're not finished. Please let us know what you like, what you don't like, and what you are still missing.